METAR

ENBN 300450Z 15021KT 9999 -RA SCT030 BKN045 06/01 Q1006

ENMS 300450Z 20013KT 9999 -SHSN FEW020 BKN025 03/M02 Q1008 RMK WIND 412FT 160011KT

ENNM 292050Z 06010KT CAVOK 00/M02 Q1018

ENOL 300450Z 13019KT CAVOK 03/M01 Q1007

ENST 300450Z 17017G28KT 9999 VCSH SCT017 BKN040 05/01 Q1005 RMK WIND 300FT 14027G39KT

ENVA 300450Z VRB02KT 9999 BKN057 01/M03 Q1010 RMK WIND 670FT 16005KT



TAF

TAF ENVA 291700Z 2918/3018 12008KT 9999 FEW035 SCT070 PROB30 TEMPO 3012/3018 3000 RASN VV012